sensor_id;sensor_type;location;lat;lon;timestamp;temperature;humidity
38020;DHT22;23829;51.350;17.286;2022-12-10T00:01:27;17.90;38.30
38020;DHT22;23829;51.350;17.286;2022-12-10T00:03:54;17.80;38.00
38020;DHT22;23829;51.350;17.286;2022-12-10T00:06:23;18.20;38.00
38020;DHT22;23829;51.350;17.286;2022-12-10T00:08:50;18.00;38.00
38020;DHT22;23829;51.350;17.286;2022-12-10T00:11:19;18.20;37.60
38020;DHT22;23829;51.350;17.286;2022-12-10T00:13:46;18.20;37.40
38020;DHT22;23829;51.350;17.286;2022-12-10T00:16:15;18.40;37.30
38020;DHT22;23829;51.350;17.286;2022-12-10T00:18:42;18.50;37.00
38020;DHT22;23829;51.350;17.286;2022-12-10T00:21:14;18.70;36.40
38020;DHT22;23829;51.350;17.286;2022-12-10T00:23:41;18.70;36.50
38020;DHT22;23829;51.350;17.286;2022-12-10T00:26:13;18.60;36.70
38020;DHT22;23829;51.350;17.286;2022-12-10T00:28:40;18.30;37.30
38020;DHT22;23829;51.350;17.286;2022-12-10T00:31:13;18.10;37.60
38020;DHT22;23829;51.350;17.286;2022-12-10T00:33:40;18.20;37.50
38020;DHT22;23829;51.350;17.286;2022-12-10T00:36:16;18.50;37.10
38020;DHT22;23829;51.350;17.286;2022-12-10T00:38:43;18.60;37.10
38020;DHT22;23829;51.350;17.286;2022-12-10T00:41:11;18.90;36.30
38020;DHT22;23829;51.350;17.286;2022-12-10T00:43:38;18.60;36.50
38020;DHT22;23829;51.350;17.286;2022-12-10T00:46:05;18.30;37.30
38020;DHT22;23829;51.350;17.286;2022-12-10T00:48:33;18.20;37.50
38020;DHT22;23829;51.350;17.286;2022-12-10T00:51:05;18.20;37.60
38020;DHT22;23829;51.350;17.286;2022-12-10T00:53:33;18.00;37.70
38020;DHT22;23829;51.350;17.286;2022-12-10T00:56:00;17.80;38.20
38020;DHT22;23829;51.350;17.286;2022-12-10T00:58:29;17.60;38.40
38020;DHT22;23829;51.350;17.286;2022-12-10T01:01:15;17.80;38.40
38020;DHT22;23829;51.350;17.286;2022-12-10T01:03:42;17.80;38.20
38020;DHT22;23829;51.350;17.286;2022-12-10T01:06:30;17.90;38.00
38020;DHT22;23829;51.350;17.286;2022-12-10T01:08:59;18.00;37.80
38020;DHT22;23829;51.350;17.286;2022-12-10T01:11:31;18.30;37.40
38020;DHT22;23829;51.350;17.286;2022-12-10T01:13:58;18.40;37.20
38020;DHT22;23829;51.350;17.286;2022-12-10T01:16:26;18.20;37.30
38020;DHT22;23829;51.350;17.286;2022-12-10T01:18:53;18.10;37.50
38020;DHT22;23829;51.350;17.286;2022-12-10T01:21:21;18.40;37.20
38020;DHT22;23829;51.350;17.286;2022-12-10T01:23:49;18.30;37.10
38020;DHT22;23829;51.350;17.286;2022-12-10T01:26:22;18.00;37.70
38020;DHT22;23829;51.350;17.286;2022-12-10T01:28:49;18.10;37.60
38020;DHT22;23829;51.350;17.286;2022-12-10T01:31:19;18.20;37.20
38020;DHT22;23829;51.350;17.286;2022-12-10T01:33:46;17.90;37.80
38020;DHT22;23829;51.350;17.286;2022-12-10T01:36:22;18.00;38.00
38020;DHT22;23829;51.350;17.286;2022-12-10T01:38:49;17.80;38.10
38020;DHT22;23829;51.350;17.286;2022-12-10T01:41:26;18.10;38.10
38020;DHT22;23829;51.350;17.286;2022-12-10T01:44:03;17.80;37.80
38020;DHT22;23829;51.350;17.286;2022-12-10T01:46:36;17.90;38.20
38020;DHT22;23829;51.350;17.286;2022-12-10T01:49:05;18.10;37.80
38020;DHT22;23829;51.350;17.286;2022-12-10T01:51:35;18.40;37.40
38020;DHT22;23829;51.350;17.286;2022-12-10T01:54:05;18.70;37.00
38020;DHT22;23829;51.350;17.286;2022-12-10T01:56:36;18.40;36.90
38020;DHT22;23829;51.350;17.286;2022-12-10T01:59:04;18.30;37.50
38020;DHT22;23829;51.350;17.286;2022-12-10T02:07:04;18.30;37.20
38020;DHT22;23829;51.350;17.286;2022-12-10T02:09:44;18.10;37.40
38020;DHT22;23829;51.350;17.286;2022-12-10T02:12:25;18.10;37.60
38020;DHT22;23829;51.350;17.286;2022-12-10T02:19:58;18.50;37.10
38020;DHT22;23829;51.350;17.286;2022-12-10T02:22:30;18.40;37.00
38020;DHT22;23829;51.350;17.286;2022-12-10T02:24:59;18.30;37.00
38020;DHT22;23829;51.350;17.286;2022-12-10T02:29:58;18.10;37.10
38020;DHT22;23829;51.350;17.286;2022-12-10T02:32:33;18.60;36.60
38020;DHT22;23829;51.350;17.286;2022-12-10T02:35:07;18.60;36.40
38020;DHT22;23829;51.350;17.286;2022-12-10T02:37:39;18.70;36.10
38020;DHT22;23829;51.350;17.286;2022-12-10T02:40:11;18.40;36.70
38020;DHT22;23829;51.350;17.286;2022-12-10T02:42:45;18.30;36.90
38020;DHT22;23829;51.350;17.286;2022-12-10T02:45:13;18.10;37.00
38020;DHT22;23829;51.350;17.286;2022-12-10T02:47:41;18.20;36.70
38020;DHT22;23829;51.350;17.286;2022-12-10T02:50:10;18.10;37.00
38020;DHT22;23829;51.350;17.286;2022-12-10T02:52:37;18.30;36.80
38020;DHT22;23829;51.350;17.286;2022-12-10T02:55:03;18.30;36.30
38020;DHT22;23829;51.350;17.286;2022-12-10T03:00:19;18.30;36.40
38020;DHT22;23829;51.350;17.286;2022-12-10T03:07:58;18.00;36.60
38020;DHT22;23829;51.350;17.286;2022-12-10T03:13:32;18.20;36.20
38020;DHT22;23829;51.350;17.286;2022-12-10T03:16:03;18.30;36.00
38020;DHT22;23829;51.350;17.286;2022-12-10T03:18:32;18.40;36.00
38020;DHT22;23829;51.350;17.286;2022-12-10T03:21:04;18.50;35.60
38020;DHT22;23829;51.350;17.286;2022-12-10T03:23:34;18.60;35.50
38020;DHT22;23829;51.350;17.286;2022-12-10T03:26:01;18.60;35.40
38020;DHT22;23829;51.350;17.286;2022-12-10T03:28:32;18.60;35.50
38020;DHT22;23829;51.350;17.286;2022-12-10T03:31:01;18.70;35.30
38020;DHT22;23829;51.350;17.286;2022-12-10T03:33:28;18.90;34.90
38020;DHT22;23829;51.350;17.286;2022-12-10T03:35:55;18.70;35.70
38020;DHT22;23829;51.350;17.286;2022-12-10T03:38:23;18.60;35.20
38020;DHT22;23829;51.350;17.286;2022-12-10T03:40:49;18.60;35.30
38020;DHT22;23829;51.350;17.286;2022-12-10T03:43:15;18.80;35.10
38020;DHT22;23829;51.350;17.286;2022-12-10T03:45:42;18.40;35.50
38020;DHT22;23829;51.350;17.286;2022-12-10T03:48:08;18.30;36.50
38020;DHT22;23829;51.350;17.286;2022-12-10T03:50:34;18.50;35.50
38020;DHT22;23829;51.350;17.286;2022-12-10T03:53:01;18.60;35.40
38020;DHT22;23829;51.350;17.286;2022-12-10T03:55:27;18.50;35.40
38020;DHT22;23829;51.350;17.286;2022-12-10T03:57:54;18.80;35.20
38020;DHT22;23829;51.350;17.286;2022-12-10T04:00:20;18.80;35.00
38020;DHT22;23829;51.350;17.286;2022-12-10T04:02:46;18.30;35.70
38020;DHT22;23829;51.350;17.286;2022-12-10T04:05:13;18.20;36.10
38020;DHT22;23829;51.350;17.286;2022-12-10T04:07:40;18.10;36.00
38020;DHT22;23829;51.350;17.286;2022-12-10T04:10:06;18.30;36.00
38020;DHT22;23829;51.350;17.286;2022-12-10T04:12:34;18.50;35.50
38020;DHT22;23829;51.350;17.286;2022-12-10T04:15:00;18.50;35.30
38020;DHT22;23829;51.350;17.286;2022-12-10T04:17:45;18.40;35.70
38020;DHT22;23829;51.350;17.286;2022-12-10T04:20:11;18.30;35.60
38020;DHT22;23829;51.350;17.286;2022-12-10T04:23:08;18.60;35.60
38020;DHT22;23829;51.350;17.286;2022-12-10T04:25:52;18.50;35.50
38020;DHT22;23829;51.350;17.286;2022-12-10T04:28:38;18.40;35.50
38020;DHT22;23829;51.350;17.286;2022-12-10T04:31:04;18.50;35.40
38020;DHT22;23829;51.350;17.286;2022-12-10T04:33:30;18.10;35.80
38020;DHT22;23829;51.350;17.286;2022-12-10T04:35:57;17.90;36.40
38020;DHT22;23829;51.350;17.286;2022-12-10T04:38:23;18.00;36.40
38020;DHT22;23829;51.350;17.286;2022-12-10T04:40:49;17.90;36.20
38020;DHT22;23829;51.350;17.286;2022-12-10T04:43:16;17.80;36.90
38020;DHT22;23829;51.350;17.286;2022-12-10T04:45:42;17.70;36.90
38020;DHT22;23829;51.350;17.286;2022-12-10T04:48:09;17.90;36.60
38020;DHT22;23829;51.350;17.286;2022-12-10T04:50:35;17.60;36.90
38020;DHT22;23829;51.350;17.286;2022-12-10T04:53:01;18.30;36.50
38020;DHT22;23829;51.350;17.286;2022-12-10T04:55:27;17.90;36.40
38020;DHT22;23829;51.350;17.286;2022-12-10T04:57:54;17.70;36.80
38020;DHT22;23829;51.350;17.286;2022-12-10T05:00:20;17.50;37.40
38020;DHT22;23829;51.350;17.286;2022-12-10T05:02:50;17.40;37.50
38020;DHT22;23829;51.350;17.286;2022-12-10T05:05:16;17.40;37.30
38020;DHT22;23829;51.350;17.286;2022-12-10T05:07:43;17.50;37.20
38020;DHT22;23829;51.350;17.286;2022-12-10T05:10:09;17.50;37.10
38020;DHT22;23829;51.350;17.286;2022-12-10T05:12:35;17.40;37.20
38020;DHT22;23829;51.350;17.286;2022-12-10T05:15:02;17.60;37.30
38020;DHT22;23829;51.350;17.286;2022-12-10T05:17:28;17.90;36.70
38020;DHT22;23829;51.350;17.286;2022-12-10T05:19:56;17.60;36.90
38020;DHT22;23829;51.350;17.286;2022-12-10T05:22:22;17.00;37.60
38020;DHT22;23829;51.350;17.286;2022-12-10T05:25:07;17.10;37.70
38020;DHT22;23829;51.350;17.286;2022-12-10T05:27:34;17.10;37.70
38020;DHT22;23829;51.350;17.286;2022-12-10T05:30:00;17.30;37.50
38020;DHT22;23829;51.350;17.286;2022-12-10T05:32:27;17.10;37.60
38020;DHT22;23829;51.350;17.286;2022-12-10T05:34:53;17.10;38.00
38020;DHT22;23829;51.350;17.286;2022-12-10T05:37:19;16.90;38.00
38020;DHT22;23829;51.350;17.286;2022-12-10T05:39:47;17.00;38.40
38020;DHT22;23829;51.350;17.286;2022-12-10T05:42:14;16.80;38.00
38020;DHT22;23829;51.350;17.286;2022-12-10T05:44:40;16.90;38.80
38020;DHT22;23829;51.350;17.286;2022-12-10T05:47:07;17.10;38.10
38020;DHT22;23829;51.350;17.286;2022-12-10T05:49:33;17.20;37.50
38020;DHT22;23829;51.350;17.286;2022-12-10T05:52:00;17.00;37.70
38020;DHT22;23829;51.350;17.286;2022-12-10T05:54:26;16.90;38.10
38020;DHT22;23829;51.350;17.286;2022-12-10T05:56:53;17.10;37.60
38020;DHT22;23829;51.350;17.286;2022-12-10T05:59:20;17.10;37.60
38020;DHT22;23829;51.350;17.286;2022-12-10T06:01:46;17.50;36.90
38020;DHT22;23829;51.350;17.286;2022-12-10T06:04:12;17.50;36.90
38020;DHT22;23829;51.350;17.286;2022-12-10T06:06:40;17.80;36.30
38020;DHT22;23829;51.350;17.286;2022-12-10T06:09:09;17.50;37.00
38020;DHT22;23829;51.350;17.286;2022-12-10T06:11:37;17.30;37.00
38020;DHT22;23829;51.350;17.286;2022-12-10T06:14:03;17.10;37.00
38020;DHT22;23829;51.350;17.286;2022-12-10T06:16:30;17.20;37.10
38020;DHT22;23829;51.350;17.286;2022-12-10T06:18:57;17.10;37.50
38020;DHT22;23829;51.350;17.286;2022-12-10T06:21:25;17.30;36.80
38020;DHT22;23829;51.350;17.286;2022-12-10T06:23:51;16.90;37.30
38020;DHT22;23829;51.350;17.286;2022-12-10T06:26:21;17.00;37.40
38020;DHT22;23829;51.350;17.286;2022-12-10T06:28:47;16.90;37.30
38020;DHT22;23829;51.350;17.286;2022-12-10T06:31:15;17.00;37.40
38020;DHT22;23829;51.350;17.286;2022-12-10T06:33:42;17.10;37.20
38020;DHT22;23829;51.350;17.286;2022-12-10T06:36:11;16.70;37.50
38020;DHT22;23829;51.350;17.286;2022-12-10T06:38:38;17.00;37.30
38020;DHT22;23829;51.350;17.286;2022-12-10T06:41:07;17.10;37.10
38020;DHT22;23829;51.350;17.286;2022-12-10T06:43:34;17.50;36.60
38020;DHT22;23829;51.350;17.286;2022-12-10T06:46:12;17.10;36.80
38020;DHT22;23829;51.350;17.286;2022-12-10T06:48:39;17.40;36.50
38020;DHT22;23829;51.350;17.286;2022-12-10T06:51:06;17.70;36.10
38020;DHT22;23829;51.350;17.286;2022-12-10T06:53:33;17.80;35.70
38020;DHT22;23829;51.350;17.286;2022-12-10T06:56:01;17.80;36.20
38020;DHT22;23829;51.350;17.286;2022-12-10T06:58:28;17.60;36.20
38020;DHT22;23829;51.350;17.286;2022-12-10T07:01:07;17.60;36.00
38020;DHT22;23829;51.350;17.286;2022-12-10T07:03:33;17.40;36.30
38020;DHT22;23829;51.350;17.286;2022-12-10T07:06:01;17.30;36.50
38020;DHT22;23829;51.350;17.286;2022-12-10T07:08:28;17.50;36.50
38020;DHT22;23829;51.350;17.286;2022-12-10T07:10:55;17.50;36.30
38020;DHT22;23829;51.350;17.286;2022-12-10T07:13:22;17.40;36.30
38020;DHT22;23829;51.350;17.286;2022-12-10T07:15:49;17.40;36.60
38020;DHT22;23829;51.350;17.286;2022-12-10T07:18:15;17.30;36.40
38020;DHT22;23829;51.350;17.286;2022-12-10T07:20:41;17.80;35.80
38020;DHT22;23829;51.350;17.286;2022-12-10T07:23:08;17.30;36.30
38020;DHT22;23829;51.350;17.286;2022-12-10T07:25:34;17.10;37.00
38020;DHT22;23829;51.350;17.286;2022-12-10T07:28:00;16.90;37.10
38020;DHT22;23829;51.350;17.286;2022-12-10T07:30:27;17.20;37.00
38020;DHT22;23829;51.350;17.286;2022-12-10T07:32:53;17.30;36.80
38020;DHT22;23829;51.350;17.286;2022-12-10T07:35:20;17.20;36.80
38020;DHT22;23829;51.350;17.286;2022-12-10T07:37:46;17.20;36.90
38020;DHT22;23829;51.350;17.286;2022-12-10T07:40:12;17.20;36.90
38020;DHT22;23829;51.350;17.286;2022-12-10T07:42:39;17.20;36.80
38020;DHT22;23829;51.350;17.286;2022-12-10T07:45:07;17.50;36.50
38020;DHT22;23829;51.350;17.286;2022-12-10T07:47:36;17.50;36.10
38020;DHT22;23829;51.350;17.286;2022-12-10T07:50:04;17.50;36.50
38020;DHT22;23829;51.350;17.286;2022-12-10T07:52:31;18.10;35.80
38020;DHT22;23829;51.350;17.286;2022-12-10T07:54:57;17.90;35.50
38020;DHT22;23829;51.350;17.286;2022-12-10T07:57:23;18.10;35.40
38020;DHT22;23829;51.350;17.286;2022-12-10T07:59:50;17.80;35.50
38020;DHT22;23829;51.350;17.286;2022-12-10T08:02:16;17.40;36.10
38020;DHT22;23829;51.350;17.286;2022-12-10T08:04:43;17.20;36.40
38020;DHT22;23829;51.350;17.286;2022-12-10T08:07:10;17.60;36.50
38020;DHT22;23829;51.350;17.286;2022-12-10T08:09:37;17.40;36.20
38020;DHT22;23829;51.350;17.286;2022-12-10T08:12:04;17.90;35.80
38020;DHT22;23829;51.350;17.286;2022-12-10T08:14:30;17.70;36.10
38020;DHT22;23829;51.350;17.286;2022-12-10T08:16:56;17.50;36.10
38020;DHT22;23829;51.350;17.286;2022-12-10T08:19:23;17.60;36.10
38020;DHT22;23829;51.350;17.286;2022-12-10T08:21:49;17.30;36.10
38020;DHT22;23829;51.350;17.286;2022-12-10T08:24:16;17.50;36.50
38020;DHT22;23829;51.350;17.286;2022-12-10T08:26:43;17.30;36.40
38020;DHT22;23829;51.350;17.286;2022-12-10T08:29:10;17.40;36.30
38020;DHT22;23829;51.350;17.286;2022-12-10T08:31:36;17.40;36.30
38020;DHT22;23829;51.350;17.286;2022-12-10T08:34:03;17.50;36.20
38020;DHT22;23829;51.350;17.286;2022-12-10T08:36:30;17.60;36.20
38020;DHT22;23829;51.350;17.286;2022-12-10T08:38:57;17.80;35.80
38020;DHT22;23829;51.350;17.286;2022-12-10T08:41:23;18.00;35.30
38020;DHT22;23829;51.350;17.286;2022-12-10T08:43:51;17.70;35.60
38020;DHT22;23829;51.350;17.286;2022-12-10T08:46:20;17.80;35.60
38020;DHT22;23829;51.350;17.286;2022-12-10T08:48:47;18.00;35.20
38020;DHT22;23829;51.350;17.286;2022-12-10T08:51:17;17.90;35.20
38020;DHT22;23829;51.350;17.286;2022-12-10T08:53:44;17.70;35.50
38020;DHT22;23829;51.350;17.286;2022-12-10T08:56:11;17.70;35.40
38020;DHT22;23829;51.350;17.286;2022-12-10T08:58:38;17.40;35.80
38020;DHT22;23829;51.350;17.286;2022-12-10T09:01:14;17.40;36.10
38020;DHT22;23829;51.350;17.286;2022-12-10T09:03:41;17.60;35.90
38020;DHT22;23829;51.350;17.286;2022-12-10T09:06:13;17.70;35.60
38020;DHT22;23829;51.350;17.286;2022-12-10T09:08:40;17.60;35.80
38020;DHT22;23829;51.350;17.286;2022-12-10T09:11:22;17.90;35.30
38020;DHT22;23829;51.350;17.286;2022-12-10T09:13:50;18.20;34.70
38020;DHT22;23829;51.350;17.286;2022-12-10T09:16:17;18.20;34.50
38020;DHT22;23829;51.350;17.286;2022-12-10T09:18:44;18.00;34.90
38020;DHT22;23829;51.350;17.286;2022-12-10T09:21:16;18.20;34.70
38020;DHT22;23829;51.350;17.286;2022-12-10T09:23:43;18.30;34.40
38020;DHT22;23829;51.350;17.286;2022-12-10T09:26:11;18.20;34.60
38020;DHT22;23829;51.350;17.286;2022-12-10T09:28:39;18.70;33.80
38020;DHT22;23829;51.350;17.286;2022-12-10T09:31:06;18.60;34.00
38020;DHT22;23829;51.350;17.286;2022-12-10T09:33:34;18.30;34.10
38020;DHT22;23829;51.350;17.286;2022-12-10T09:36:05;18.30;34.40
38020;DHT22;23829;51.350;17.286;2022-12-10T09:38:38;18.40;34.40
38020;DHT22;23829;51.350;17.286;2022-12-10T09:51:59;18.20;34.60
38020;DHT22;23829;51.350;17.286;2022-12-10T09:54:33;18.30;34.50
38020;DHT22;23829;51.350;17.286;2022-12-10T09:57:04;18.50;34.20
38020;DHT22;23829;51.350;17.286;2022-12-10T09:59:42;18.40;34.30
38020;DHT22;23829;51.350;17.286;2022-12-10T10:02:20;18.40;34.20
38020;DHT22;23829;51.350;17.286;2022-12-10T10:04:49;18.30;34.50
38020;DHT22;23829;51.350;17.286;2022-12-10T10:07:25;18.30;34.50
38020;DHT22;23829;51.350;17.286;2022-12-10T10:09:58;18.50;34.80
38020;DHT22;23829;51.350;17.286;2022-12-10T10:12:31;18.40;34.10
38020;DHT22;23829;51.350;17.286;2022-12-10T10:15:09;18.50;34.40
38020;DHT22;23829;51.350;17.286;2022-12-10T10:17:38;18.30;34.60
38020;DHT22;23829;51.350;17.286;2022-12-10T10:20:05;18.60;34.20
38020;DHT22;23829;51.350;17.286;2022-12-10T10:22:31;18.60;34.30
38020;DHT22;23829;51.350;17.286;2022-12-10T10:24:58;18.90;33.70
38020;DHT22;23829;51.350;17.286;2022-12-10T10:27:30;18.70;34.00
38020;DHT22;23829;51.350;17.286;2022-12-10T10:29:59;18.70;34.10
38020;DHT22;23829;51.350;17.286;2022-12-10T10:32:28;19.30;33.10
38020;DHT22;23829;51.350;17.286;2022-12-10T10:35:27;19.60;33.00
38020;DHT22;23829;51.350;17.286;2022-12-10T10:38:00;18.90;34.10
38020;DHT22;23829;51.350;17.286;2022-12-10T10:40:40;19.00;33.60
38020;DHT22;23829;51.350;17.286;2022-12-10T10:43:14;18.70;33.70
38020;DHT22;23829;51.350;17.286;2022-12-10T10:45:43;18.40;34.20
38020;DHT22;23829;51.350;17.286;2022-12-10T10:48:20;18.20;34.60
38020;DHT22;23829;51.350;17.286;2022-12-10T10:51:15;18.50;34.40
38020;DHT22;23829;51.350;17.286;2022-12-10T10:59:00;18.50;34.40
38020;DHT22;23829;51.350;17.286;2022-12-10T11:01:53;18.60;34.10
38020;DHT22;23829;51.350;17.286;2022-12-10T11:04:29;18.60;34.10
38020;DHT22;23829;51.350;17.286;2022-12-10T11:07:00;18.60;34.00
38020;DHT22;23829;51.350;17.286;2022-12-10T11:09:30;19.00;33.70
38020;DHT22;23829;51.350;17.286;2022-12-10T11:12:07;18.70;33.60
38020;DHT22;23829;51.350;17.286;2022-12-10T11:14:46;18.60;33.90
38020;DHT22;23829;51.350;17.286;2022-12-10T11:17:19;18.40;34.40
38020;DHT22;23829;51.350;17.286;2022-12-10T11:20:19;18.40;34.40
38020;DHT22;23829;51.350;17.286;2022-12-10T11:23:05;18.20;34.90
38020;DHT22;23829;51.350;17.286;2022-12-10T11:44:40;18.50;34.20
38020;DHT22;23829;51.350;17.286;2022-12-10T11:50:27;18.60;33.70
38020;DHT22;23829;51.350;17.286;2022-12-10T12:01:38;18.80;33.80
38020;DHT22;23829;51.350;17.286;2022-12-10T12:04:21;18.80;33.50
38020;DHT22;23829;51.350;17.286;2022-12-10T12:13:14;18.70;33.90
38020;DHT22;23829;51.350;17.286;2022-12-10T12:18:23;19.20;33.20
38020;DHT22;23829;51.350;17.286;2022-12-10T12:20:57;19.20;33.10
38020;DHT22;23829;51.350;17.286;2022-12-10T12:23:33;19.10;33.20
38020;DHT22;23829;51.350;17.286;2022-12-10T12:26:13;19.00;33.30
38020;DHT22;23829;51.350;17.286;2022-12-10T12:29:21;19.00;33.40
38020;DHT22;23829;51.350;17.286;2022-12-10T12:32:10;19.20;33.00
38020;DHT22;23829;51.350;17.286;2022-12-10T12:37:04;19.00;33.20
38020;DHT22;23829;51.350;17.286;2022-12-10T12:44:47;18.70;33.90
38020;DHT22;23829;51.350;17.286;2022-12-10T12:47:23;18.50;34.10
38020;DHT22;23829;51.350;17.286;2022-12-10T12:49:55;18.50;34.00
38020;DHT22;23829;51.350;17.286;2022-12-10T12:52:46;18.60;33.90
38020;DHT22;23829;51.350;17.286;2022-12-10T12:55:25;18.50;34.20
38020;DHT22;23829;51.350;17.286;2022-12-10T13:00:45;18.50;33.90
38020;DHT22;23829;51.350;17.286;2022-12-10T13:03:36;18.50;34.10
38020;DHT22;23829;51.350;17.286;2022-12-10T13:06:19;18.40;34.50
38020;DHT22;23829;51.350;17.286;2022-12-10T13:11:36;18.50;34.10
38020;DHT22;23829;51.350;17.286;2022-12-10T13:14:16;18.60;34.10
38020;DHT22;23829;51.350;17.286;2022-12-10T13:16:55;18.60;34.20
38020;DHT22;23829;51.350;17.286;2022-12-10T13:19:26;18.40;34.30
38020;DHT22;23829;51.350;17.286;2022-12-10T13:25:10;18.70;33.70
38020;DHT22;23829;51.350;17.286;2022-12-10T13:27:38;18.50;34.10
38020;DHT22;23829;51.350;17.286;2022-12-10T13:32:53;18.50;34.00
38020;DHT22;23829;51.350;17.286;2022-12-10T13:35:28;18.30;34.60
38020;DHT22;23829;51.350;17.286;2022-12-10T13:38:17;18.30;34.20
38020;DHT22;23829;51.350;17.286;2022-12-10T13:40:50;18.40;34.50
38020;DHT22;23829;51.350;17.286;2022-12-10T13:43:40;18.40;34.30
38020;DHT22;23829;51.350;17.286;2022-12-10T13:48:57;19.20;33.30
38020;DHT22;23829;51.350;17.286;2022-12-10T13:51:52;19.00;32.80
38020;DHT22;23829;51.350;17.286;2022-12-10T13:55:19;18.80;33.40
38020;DHT22;23829;51.350;17.286;2022-12-10T14:00:40;18.70;33.70
38020;DHT22;23829;51.350;17.286;2022-12-10T14:03:33;18.90;33.40
38020;DHT22;23829;51.350;17.286;2022-12-10T14:06:18;19.20;32.90
38020;DHT22;23829;51.350;17.286;2022-12-10T14:09:02;18.80;33.20
38020;DHT22;23829;51.350;17.286;2022-12-10T14:11:36;18.80;33.30
38020;DHT22;23829;51.350;17.286;2022-12-10T14:14:10;18.80;33.20
38020;DHT22;23829;51.350;17.286;2022-12-10T14:16:40;18.60;33.60
38020;DHT22;23829;51.350;17.286;2022-12-10T14:19:11;18.60;33.40
38020;DHT22;23829;51.350;17.286;2022-12-10T14:21:41;18.60;33.70
38020;DHT22;23829;51.350;17.286;2022-12-10T14:24:38;18.90;33.20
38020;DHT22;23829;51.350;17.286;2022-12-10T14:27:33;18.80;33.30
38020;DHT22;23829;51.350;17.286;2022-12-10T14:30:17;19.00;33.10
38020;DHT22;23829;51.350;17.286;2022-12-10T14:32:44;19.00;33.00
38020;DHT22;23829;51.350;17.286;2022-12-10T14:35:14;18.90;32.90
38020;DHT22;23829;51.350;17.286;2022-12-10T14:37:43;19.10;33.00
38020;DHT22;23829;51.350;17.286;2022-12-10T14:40:30;18.90;33.20
38020;DHT22;23829;51.350;17.286;2022-12-10T14:43:25;19.10;33.20
38020;DHT22;23829;51.350;17.286;2022-12-10T14:45:57;19.20;32.70
38020;DHT22;23829;51.350;17.286;2022-12-10T14:48:24;18.90;33.10
38020;DHT22;23829;51.350;17.286;2022-12-10T14:50:51;18.90;33.10
38020;DHT22;23829;51.350;17.286;2022-12-10T14:53:25;19.00;33.20
38020;DHT22;23829;51.350;17.286;2022-12-10T14:55:55;19.00;33.20
38020;DHT22;23829;51.350;17.286;2022-12-10T14:58:38;18.80;33.30
38020;DHT22;23829;51.350;17.286;2022-12-10T15:01:06;18.80;33.30
38020;DHT22;23829;51.350;17.286;2022-12-10T15:03:39;19.10;33.10
38020;DHT22;23829;51.350;17.286;2022-12-10T15:06:09;18.90;33.30
38020;DHT22;23829;51.350;17.286;2022-12-10T15:08:36;18.30;34.10
38020;DHT22;23829;51.350;17.286;2022-12-10T15:11:04;18.60;33.90
38020;DHT22;23829;51.350;17.286;2022-12-10T15:13:38;18.80;33.50
38020;DHT22;23829;51.350;17.286;2022-12-10T15:16:06;18.60;33.60
38020;DHT22;23829;51.350;17.286;2022-12-10T15:18:40;18.70;33.80
38020;DHT22;23829;51.350;17.286;2022-12-10T15:21:15;18.90;33.60
38020;DHT22;23829;51.350;17.286;2022-12-10T15:23:46;18.70;33.80
38020;DHT22;23829;51.350;17.286;2022-12-10T15:26:20;18.80;33.50
38020;DHT22;23829;51.350;17.286;2022-12-10T15:28:49;18.80;33.30
38020;DHT22;23829;51.350;17.286;2022-12-10T15:33:58;18.80;33.80
38020;DHT22;23829;51.350;17.286;2022-12-10T15:37:12;18.90;33.50
38020;DHT22;23829;51.350;17.286;2022-12-10T15:39:32;18.40;33.80
38020;DHT22;23829;51.350;17.286;2022-12-10T15:42:05;18.70;34.00
38020;DHT22;23829;51.350;17.286;2022-12-10T15:44:37;18.50;33.90
38020;DHT22;23829;51.350;17.286;2022-12-10T15:47:14;18.20;34.40
38020;DHT22;23829;51.350;17.286;2022-12-10T15:49:42;18.10;34.80
38020;DHT22;23829;51.350;17.286;2022-12-10T15:52:21;18.30;34.50
38020;DHT22;23829;51.350;17.286;2022-12-10T15:54:50;18.50;34.20
38020;DHT22;23829;51.350;17.286;2022-12-10T15:59:45;18.90;33.70
38020;DHT22;23829;51.350;17.286;2022-12-10T16:07:37;19.10;33.30
38020;DHT22;23829;51.350;17.286;2022-12-10T16:10:04;19.20;33.00
38020;DHT22;23829;51.350;17.286;2022-12-10T16:12:32;19.20;33.00
38020;DHT22;23829;51.350;17.286;2022-12-10T16:14:59;19.10;33.00
38020;DHT22;23829;51.350;17.286;2022-12-10T16:17:29;19.10;33.40
38020;DHT22;23829;51.350;17.286;2022-12-10T16:20:25;19.30;32.90
38020;DHT22;23829;51.350;17.286;2022-12-10T16:22:54;19.00;33.30
38020;DHT22;23829;51.350;17.286;2022-12-10T16:25:22;18.80;33.40
38020;DHT22;23829;51.350;17.286;2022-12-10T16:27:49;18.90;33.60
38020;DHT22;23829;51.350;17.286;2022-12-10T16:30:28;19.20;33.30
38020;DHT22;23829;51.350;17.286;2022-12-10T16:33:28;18.90;33.10
38020;DHT22;23829;51.350;17.286;2022-12-10T16:35:56;19.10;33.30
38020;DHT22;23829;51.350;17.286;2022-12-10T16:38:23;19.10;33.00
38020;DHT22;23829;51.350;17.286;2022-12-10T16:40:51;19.00;33.10
38020;DHT22;23829;51.350;17.286;2022-12-10T16:43:23;18.80;33.50
38020;DHT22;23829;51.350;17.286;2022-12-10T16:45:51;18.80;33.50
38020;DHT22;23829;51.350;17.286;2022-12-10T16:48:18;18.80;33.50
38020;DHT22;23829;51.350;17.286;2022-12-10T16:50:47;18.90;33.60
38020;DHT22;23829;51.350;17.286;2022-12-10T16:55:43;18.70;33.50
38020;DHT22;23829;51.350;17.286;2022-12-10T16:58:11;18.60;33.90
38020;DHT22;23829;51.350;17.286;2022-12-10T17:00:42;18.70;33.90
38020;DHT22;23829;51.350;17.286;2022-12-10T17:03:10;18.80;33.80
38020;DHT22;23829;51.350;17.286;2022-12-10T17:05:50;18.40;33.80
38020;DHT22;23829;51.350;17.286;2022-12-10T17:08:17;18.30;34.50
38020;DHT22;23829;51.350;17.286;2022-12-10T17:10:44;18.40;34.30
38020;DHT22;23829;51.350;17.286;2022-12-10T17:13:31;18.40;34.20
38020;DHT22;23829;51.350;17.286;2022-12-10T17:15:58;18.10;34.60
38020;DHT22;23829;51.350;17.286;2022-12-10T17:18:24;18.00;34.80
38020;DHT22;23829;51.350;17.286;2022-12-10T17:20:51;17.90;35.00
38020;DHT22;23829;51.350;17.286;2022-12-10T17:23:18;17.90;35.30
38020;DHT22;23829;51.350;17.286;2022-12-10T17:25:45;18.10;34.80
38020;DHT22;23829;51.350;17.286;2022-12-10T17:28:17;18.10;34.60
38020;DHT22;23829;51.350;17.286;2022-12-10T17:30:44;18.20;34.40
38020;DHT22;23829;51.350;17.286;2022-12-10T17:33:15;17.90;34.80
38020;DHT22;23829;51.350;17.286;2022-12-10T17:35:43;18.10;34.80
38020;DHT22;23829;51.350;17.286;2022-12-10T17:38:36;18.30;34.50